VE-0176 weather

San Antonio de Maturín Heliport
San Antonio , Monagas, Venezuela

Public forecast

Using degrees Celsius for public forecast. Weather courtesy of forecast.io.

METAR (pilot weather report)

Report is more than 6 hours old.

Closest report is Cumaná (Antonio José de Sucre) Airport, 31.6 nm (58.5 km) NW. Retrieved 2018/08/21 20:00 UTC (7 months ago):

SVCU 212000Z /////KT 9999 SKC016 34/23 Q1014

TAF (pilot weather forecast)

Forecast is more than 12 hours old.

Closest forecast is Del Caribe Santiago Mariño International Airport, 50.0 nm (92.6 km) NNW. Retrieved 2019/03/17 18:03 UTC (6 days ago):

TAF SVMG 170400Z 1718/1818 07006KT 9999 SCT010 BKN080 TX27/1812Z TN24/1800Z PROB30 TEMPO 1700/1704 08012KT 9999 BKN080